Погода METAR - Абакан

Кемерово, Абакан, Красноярск, Новосибирск
Код METAR: UNAA 161400Z 06002MPS CAVOK 14/12 Q1011 R20/290155 NOSIG RMK QFE736

Погода - Сейчас

Время: 2021-05-16 21:00, местное
Направление ветра: Восток-северо-восток (60°)
Скорость ветра: 2 м/с
Видимость: более 10км, отсутствие осадков и облаков
Температура: 14°C
Точка росы: 12°C
Атмосферное давление: 1011 гПа

Архив погоды

Время, местное Направление Скорость, м/с Температура, °C Точка росы, °C Давление, гПа
2021-05-16 21:00 ВСВ (60°) 2 14 12 1011
2021-05-16 11:00 Ю (190°) 6 15 9 1015
2021-05-14 13:00 ЗЮЗ (240°) 8, порывы до 16 21 0 1012
2021-05-13 04:30 З (270°) 1 5 -2 1014
2021-05-13 01:00 Штиль 0 9 -1 1013
2021-05-11 15:00 В (90°) 5 20 -3 1011
2021-05-11 14:30 СЗ (320°) 3, порывы до 8 19 -3 1012
2021-05-10 20:30 ЮВ (130°) 2 11 1 1020
2021-05-09 03:00 С (350°) 4 9 6 1014
2021-05-07 14:30 Ю (190°) 2 20 6 1004
2021-05-06 07:30 З (270°) 2 6 -3 1015
2021-05-05 17:30 ЮЗ (210°) 4 12 -7 1019
2021-05-04 14:00 ЗЮЗ (250°) 11 13 3 1012
2021-05-02 20:00 З (280°) 5 8 -2 1029
2021-05-02 18:00 СЗ (300°) 3 9 2 1028
2021-05-02 10:30 ЮЗ (220°) 8 10 -1 1023
2021-05-01 22:30 ЮЗ (220°) 3 7 1 1014
2021-05-01 17:30 З (270°) 1 13 1 1013
2021-05-01 02:30 ЮЗ (210°) 2 4 -1 1012
2021-04-30 23:30 ЗЮЗ (260°) 3 5 2 1011
2021-04-30 04:30 ВЮВ (110°) 2 6 5 1006
2021-04-28 05:30 ЮЗ (220°) 3 6 6 1015
2021-04-27 01:00 ЗЮЗ (260°) 1 1 -5 1024
2021-04-26 17:30 ЗЮЗ (240°) 1 14 -6 1025
2021-04-25 14:30 СВ (40°) 3 9 -7 1026
2021-04-24 14:30 Переменный 2 11 -9 1024
2021-04-23 03:30 ССЗ (340°) 3 -3 -11 1036
2021-04-22 21:00 С (350°) 4 2 -11 1034
2021-04-22 18:30 С (360°) 6 7 -12 1032
2021-04-22 13:30 ССВ (20°) 7 7 -11 1030
2021-04-21 13:30 ВСВ (70°) 3 3 -15 1020
2021-04-20 14:30 ССВ (20°) 7 -1 -9 1019
2021-04-20 11:00 ЮЗ (220°) 2 -3 -13 1020
2021-04-19 00:00 ЮЗ (220°) 3 3 -4 1011
2021-04-16 12:00 ЮЗ (230°) 4 15 -1 1016
2021-04-13 09:00 С (360°) 2 2 -1 1021
2021-04-11 12:30 СВ (30°) 2 6 -15 1039
2021-04-11 02:00 Переменный 1 -1 -6 1037
2021-04-10 10:00 С (10°) 5 6 -3 1031
2021-04-09 05:30 СЗ (300°) 1 0 0 1027
2021-04-07 21:00 Штиль 0 4 2 1022
2021-04-07 20:30 СВ (40°) 1 4 2 1021
2021-04-07 19:00 С (360°) 5 5 2 1020
2021-04-07 10:00 ЮЗ (220°) 2 7 2 1025
2021-04-07 04:00 В (90°) 1 3 -1 1023
2021-04-03 18:30 ЗЮЗ (240°) 6 7 -6 1026
2021-04-02 23:00 ЮЗ (230°) 5 4 -11 1028
2021-04-01 20:30 Ю (190°) 2 1 -9 1029